This is the latest recevied weather packets stored in our database for station/object KF7OVD-WX. If no packets are shown the sender has not sent any weather packets the latest 10 day(s).
| Time | Temp. | Humidity | Pressure | Rain* | Wind** | Luminosity | Snow |
|---|---|---|---|---|---|---|---|
| 1778349016 | 27.78° C | 23% | 1023.4 hPa | 0 mm | - | - | - |
| 1778348428 | 26.67° C | 24% | 1023.7 hPa | 0 mm | - | - | - |
| 1778346640 | 26.11° C | 25% | 1023.7 hPa | 0 mm | - | - | - |
| 1778345428 | 25.56° C | 25% | 1023.7 hPa | 0 mm | - | - | - |
| 1778344824 | 25° C | 27% | 1023.7 hPa | 0 mm | - | - | - |
| 1778343027 | 23.33° C | 29% | 1023.9 hPa | 0 mm | - | - | - |
| 1778342745 | 23.33° C | 29% | 1023.9 hPa | 0 mm | - | - | - |
| 1778339415 | 19.44° C | 37% | 1023.9 hPa | 0 mm | - | - | - |
| 1778339119 | 18.89° C | 36% | 1023.9 hPa | 0 mm | - | - | - |
| 1778338817 | 19.44° C | 36% | 1023.7 hPa | 0 mm | - | - | - |
| 1778338230 | 18.89° C | 33% | 1023.7 hPa | 0 mm | - | - | - |
| 1778337626 | 16.67° C | 36% | 1023.7 hPa | 0 mm | - | - | - |
| 1778337323 | 16.11° C | 38% | 1023.4 hPa | 0 mm | - | - | - |
| 1778335225 | 8.89° C | 47% | 1023.2 hPa | 0 mm | - | - | - |
| 1778334016 | 6.11° C | 53% | 1022.9 hPa | 0 mm | - | - | - |
| 1778333429 | 5.56° C | 52% | 1022.6 hPa | 0 mm | - | - | - |
| 1778329825 | 3.33° C | 56% | 1021.9 hPa | 0 mm | - | - | - |
| 1778329543 | 3.33° C | 57% | 1021.8 hPa | 0 mm | - | - | - |
| 1778325326 | 3.89° C | 54% | 1021.3 hPa | 0 mm | - | - | - |
| 1778325024 | 4.44° C | 54% | 1021.2 hPa | 0 mm | - | - | - |
| 1778323519 | 5° C | 50% | 1021 hPa | 0 mm | - | - | - |
| 1778322933 | 5.56° C | 49% | 1020.8 hPa | 0 mm | - | - | - |
| 1778322630 | 5.56° C | 48% | 1020.8 hPa | 0 mm | - | - | - |
| 1778322026 | 5.56° C | 48% | 1020.8 hPa | 0 mm | - | - | - |
| 1778321442 | 6.11° C | 47% | 1020.7 hPa | 0 mm | - | - | - |
* Rain latest hour (hover to see other rain measurements)
** Current wind speed in m/s (hover to see current wind gust speed)